createdAt,value
2023-04-11T00:01:02.094Z,4.37
2023-04-11T00:03:29.327Z,4.60
2023-04-11T00:05:56.544Z,4.67
2023-04-11T00:08:23.687Z,4.47
2023-04-11T00:10:50.844Z,4.40
2023-04-11T00:13:19.775Z,4.67
2023-04-11T00:15:47.691Z,4.30
2023-04-11T00:18:14.949Z,4.13
2023-04-11T00:20:42.092Z,4.60
2023-04-11T00:23:09.375Z,4.60
2023-04-11T00:25:37.359Z,4.80
2023-04-11T00:28:04.678Z,4.43
2023-04-11T00:30:31.791Z,4.77
2023-04-11T00:32:59.045Z,4.30
2023-04-11T00:35:26.272Z,4.40
2023-04-11T00:37:56.296Z,4.37
2023-04-11T00:40:23.585Z,4.23
2023-04-11T00:42:50.772Z,3.70
2023-04-11T00:45:17.946Z,4.00
2023-04-11T00:47:45.343Z,4.50
2023-04-11T00:50:14.092Z,4.30
2023-04-11T00:52:41.676Z,4.40
2023-04-11T00:55:09.031Z,4.50
2023-04-11T00:57:36.260Z,4.40
2023-04-11T01:00:04.079Z,4.00
2023-04-11T01:02:32.204Z,4.07
2023-04-11T01:05:04.044Z,4.50
2023-04-11T01:07:31.902Z,4.20
2023-04-11T01:10:00.190Z,4.17
2023-04-11T01:12:27.965Z,4.47
2023-04-11T01:14:55.326Z,4.13
2023-04-11T01:17:22.708Z,4.00
2023-04-11T01:19:49.871Z,4.20
2023-04-11T01:22:18.150Z,4.77
2023-04-11T01:24:45.457Z,3.80
2023-04-11T01:27:12.680Z,4.37
2023-04-11T01:29:39.857Z,4.47
2023-04-11T01:32:07.748Z,4.63
2023-04-11T01:34:35.863Z,4.47
2023-04-11T01:37:03.193Z,4.70
2023-04-11T01:39:30.790Z,4.50
2023-04-11T01:41:58.636Z,4.60
2023-04-11T01:44:26.152Z,4.33
2023-04-11T01:46:53.311Z,4.67
2023-04-11T01:49:21.621Z,4.77
2023-04-11T01:51:48.745Z,4.70
2023-04-11T01:54:15.935Z,4.50
2023-04-11T01:56:43.168Z,4.33
2023-04-11T01:59:10.538Z,4.60
2023-04-11T02:01:37.799Z,4.70
2023-04-11T02:04:05.300Z,4.33
2023-04-11T02:06:32.523Z,5.00
2023-04-11T02:08:59.644Z,4.60
2023-04-11T02:11:26.774Z,4.77
2023-04-11T02:13:54.040Z,4.53
2023-04-11T02:16:25.683Z,4.40
2023-04-11T02:18:54.184Z,4.83
2023-04-11T02:21:21.581Z,4.80
2023-04-11T02:23:48.700Z,4.60
2023-04-11T02:26:15.861Z,4.77
2023-04-11T02:28:43.054Z,4.50
2023-04-11T02:31:10.517Z,4.50
2023-04-11T02:33:37.816Z,4.20
2023-04-11T02:36:05.134Z,4.50
2023-04-11T02:38:32.469Z,4.13
2023-04-11T02:41:00.203Z,4.33
2023-04-11T02:43:27.420Z,4.10
2023-04-11T02:45:59.236Z,4.50
2023-04-11T02:48:33.049Z,3.97
2023-04-11T02:51:00.176Z,4.23
2023-04-11T02:53:27.372Z,4.10
2023-04-11T02:55:54.499Z,4.00
2023-04-11T02:58:21.611Z,4.20
2023-04-11T03:00:51.379Z,3.83
2023-04-11T03:03:18.653Z,4.40
2023-04-11T03:05:45.996Z,4.20
2023-04-11T03:08:13.135Z,4.20
2023-04-11T03:10:40.282Z,4.20
2023-04-11T03:13:07.481Z,4.17
2023-04-11T03:15:34.667Z,3.80
2023-04-11T03:18:01.817Z,3.90
2023-04-11T03:20:29.080Z,3.60
2023-04-11T03:22:56.266Z,4.33
2023-04-11T03:25:23.399Z,4.13
2023-04-11T03:27:50.925Z,4.13
2023-04-11T03:30:18.075Z,4.10
2023-04-11T03:32:45.249Z,3.97
2023-04-11T03:35:12.644Z,3.77
2023-04-11T03:37:39.816Z,4.10
2023-04-11T03:40:08.363Z,4.70
2023-04-11T03:42:38.615Z,3.80
2023-04-11T03:45:06.016Z,4.10
2023-04-11T03:47:33.238Z,3.87
2023-04-11T03:50:01.203Z,4.00
2023-04-11T03:52:28.377Z,4.10
2023-04-11T03:54:55.574Z,4.77
2023-04-11T03:57:22.805Z,4.63
2023-04-11T03:59:50.670Z,4.50
2023-04-11T04:02:17.891Z,4.50
2023-04-11T04:04:58.368Z,4.50
2023-04-11T04:07:26.071Z,4.57
2023-04-11T04:09:53.376Z,4.00
2023-04-11T04:12:24.036Z,4.70
2023-04-11T04:14:51.207Z,4.87
2023-04-11T04:17:18.324Z,5.23
2023-04-11T04:19:45.456Z,5.20
2023-04-11T04:22:13.269Z,4.83
2023-04-11T04:24:42.084Z,5.07
2023-04-11T04:27:09.473Z,4.80
2023-04-11T04:29:46.312Z,5.17
2023-04-11T04:32:20.715Z,5.00
2023-04-11T04:34:55.064Z,5.50
2023-04-11T04:37:23.891Z,5.43
2023-04-11T04:39:54.759Z,5.43
2023-04-11T04:42:26.077Z,5.10
2023-04-11T04:44:54.080Z,5.50
2023-04-11T04:47:23.170Z,5.23
2023-04-11T04:49:50.443Z,5.03
2023-04-11T04:52:17.621Z,5.43
2023-04-11T04:54:44.781Z,5.20
2023-04-11T04:57:11.895Z,4.97
2023-04-11T04:59:39.082Z,5.43
2023-04-11T05:02:06.399Z,5.27
2023-04-11T05:04:36.439Z,5.63
2023-04-11T05:07:03.609Z,5.60
2023-04-11T05:09:30.759Z,5.90
2023-04-11T05:11:57.933Z,5.50
2023-04-11T05:14:25.095Z,5.33
2023-04-11T05:16:52.244Z,5.80
2023-04-11T05:19:19.475Z,5.93
2023-04-11T05:21:46.894Z,5.50
2023-04-11T05:24:14.119Z,5.80
2023-04-11T05:26:41.268Z,5.67
2023-04-11T05:29:08.413Z,5.27
2023-04-11T05:31:35.784Z,5.73
2023-04-11T05:34:03.502Z,4.73
2023-04-11T05:36:31.240Z,5.10
2023-04-11T05:38:58.422Z,5.03
2023-04-11T05:41:25.795Z,5.47
2023-04-11T05:43:53.025Z,5.43
2023-04-11T05:46:20.837Z,5.17
2023-04-11T05:48:48.132Z,5.30
2023-04-11T05:51:15.250Z,5.50
2023-04-11T05:53:43.890Z,5.17
2023-04-11T05:56:12.865Z,5.93
2023-04-11T05:58:40.499Z,5.80
2023-04-11T06:01:12.283Z,5.67
2023-04-11T06:03:39.590Z,5.10
2023-04-11T06:06:06.980Z,5.30
2023-04-11T06:08:34.438Z,5.53
2023-04-11T06:11:01.546Z,5.03
2023-04-11T06:13:28.712Z,5.33
2023-04-11T06:15:56.218Z,5.50
2023-04-11T06:18:23.445Z,5.10
2023-04-11T06:20:50.745Z,5.40
2023-04-11T06:23:17.944Z,5.17
2023-04-11T06:25:45.352Z,6.10
2023-04-11T06:28:12.590Z,5.93
2023-04-11T06:30:39.770Z,5.17
2023-04-11T06:33:06.987Z,5.53
2023-04-11T06:35:34.205Z,5.50
2023-04-11T06:38:01.331Z,5.40
2023-04-11T06:40:28.444Z,5.50
2023-04-11T06:42:57.976Z,5.10
2023-04-11T06:45:25.260Z,5.50
2023-04-11T06:47:52.495Z,5.40
2023-04-11T06:50:19.739Z,5.37
2023-04-11T06:52:46.943Z,5.23
2023-04-11T06:55:15.503Z,5.03
2023-04-11T06:57:44.005Z,5.50
2023-04-11T07:00:12.954Z,5.30
2023-04-11T07:02:41.141Z,5.70
2023-04-11T07:05:11.608Z,5.23
2023-04-11T07:07:38.796Z,4.97
2023-04-11T07:10:06.425Z,4.80
2023-04-11T07:12:33.643Z,4.27
2023-04-11T07:15:01.064Z,4.20
2023-04-11T07:17:28.311Z,4.03
2023-04-11T07:19:55.602Z,3.53
2023-04-11T07:22:22.773Z,4.07
2023-04-11T07:24:55.186Z,3.67
2023-04-11T07:27:23.375Z,3.30
2023-04-11T07:29:50.639Z,3.10
2023-04-11T07:32:17.837Z,2.70
2023-04-11T07:34:45.079Z,3.57
2023-04-11T07:37:12.497Z,2.90
2023-04-11T07:39:40.673Z,2.80
2023-04-11T07:42:08.430Z,2.30
2023-04-11T07:44:35.746Z,2.53
2023-04-11T07:47:02.950Z,2.30
2023-04-11T07:49:30.309Z,2.03
2023-04-11T07:51:57.446Z,2.30
2023-04-11T07:54:25.408Z,2.60
2023-04-11T07:56:52.581Z,2.17
2023-04-11T07:59:19.705Z,1.80
2023-04-11T08:01:46.907Z,2.30
2023-04-11T08:04:14.356Z,2.30
2023-04-11T08:06:41.697Z,2.30
2023-04-11T08:09:08.845Z,2.27
2023-04-11T08:11:36.438Z,2.23
2023-04-11T08:14:03.644Z,2.30
2023-04-11T08:16:30.851Z,2.03
2023-04-11T08:18:59.075Z,2.00
2023-04-11T08:21:26.218Z,2.00
2023-04-11T08:23:53.401Z,1.97
2023-04-11T08:26:21.146Z,1.80
2023-04-11T08:28:48.444Z,1.80
2023-04-11T08:31:15.724Z,2.13
2023-04-11T08:33:43.004Z,1.70
2023-04-11T08:36:10.864Z,2.00
2023-04-11T08:38:38.671Z,2.00
2023-04-11T08:41:06.114Z,1.80
2023-04-11T08:43:34.385Z,2.27
2023-04-11T08:46:03.998Z,1.87
2023-04-11T08:48:32.276Z,2.20
2023-04-11T08:50:59.502Z,1.80
2023-04-11T08:53:27.538Z,1.83
2023-04-11T08:55:54.718Z,2.03
2023-04-11T08:58:22.112Z,2.10
2023-04-11T09:00:49.313Z,1.73
2023-04-11T09:03:17.343Z,1.83
2023-04-11T09:05:46.140Z,2.00
2023-04-11T09:08:14.135Z,1.87
2023-04-11T09:10:42.325Z,1.17
2023-04-11T09:13:21.721Z,1.23
2023-04-11T09:15:49.180Z,1.30
2023-04-11T09:18:32.017Z,1.50
2023-04-11T09:21:06.367Z,1.43
2023-04-11T09:23:33.643Z,1.30
2023-04-11T09:26:00.980Z,1.30
2023-04-11T09:28:28.207Z,1.40
2023-04-11T09:30:56.159Z,1.37
2023-04-11T09:33:28.571Z,1.20
2023-04-11T09:35:57.134Z,1.20
2023-04-11T09:38:30.798Z,1.50
2023-04-11T09:40:58.301Z,1.47
2023-04-11T09:43:25.688Z,1.67
2023-04-11T09:46:09.586Z,1.37
2023-04-11T09:48:46.443Z,1.30
2023-04-11T09:51:24.377Z,1.23
2023-04-11T09:54:02.226Z,1.40
2023-04-11T09:56:34.343Z,1.43
2023-04-11T09:59:03.373Z,1.53
2023-04-11T10:01:30.882Z,1.60
2023-04-11T10:03:58.642Z,1.53
2023-04-11T10:06:33.657Z,1.50
2023-04-11T10:09:14.558Z,1.40
2023-04-11T10:11:43.014Z,1.90
2023-04-11T10:14:10.784Z,1.90
2023-04-11T10:16:57.885Z,1.63
2023-04-11T10:19:25.705Z,1.83
2023-04-11T10:21:53.125Z,1.40
2023-04-11T10:24:21.356Z,1.47
2023-04-11T10:26:56.041Z,1.70
2023-04-11T10:29:29.450Z,1.30
2023-04-11T10:32:08.731Z,1.63
2023-04-11T10:34:38.821Z,1.40
2023-04-11T10:37:09.662Z,1.30
2023-04-11T10:39:48.764Z,1.20
2023-04-11T10:42:31.618Z,1.60
2023-04-11T10:45:17.990Z,1.60
2023-04-11T10:48:00.888Z,1.80
2023-04-11T10:50:34.228Z,1.63
2023-04-11T10:53:06.413Z,1.40
2023-04-11T10:55:44.552Z,1.37
2023-04-11T10:58:22.166Z,1.40
2023-04-11T11:00:52.591Z,1.53
2023-04-11T11:03:23.235Z,0.90
2023-04-11T11:06:01.025Z,0.47
2023-04-11T11:08:30.490Z,0.83
2023-04-11T11:11:07.266Z,0.60
2023-04-11T11:13:41.206Z,0.90
2023-04-11T11:16:09.582Z,0.83
2023-04-11T11:18:37.796Z,0.60
2023-04-11T11:21:07.395Z,0.70
2023-04-11T11:23:36.813Z,0.70
2023-04-11T11:26:03.962Z,0.90
2023-04-11T11:28:31.291Z,1.10
2023-04-11T11:30:58.889Z,0.93
2023-04-11T11:33:26.777Z,0.80
2023-04-11T11:35:54.046Z,1.10
2023-04-11T11:38:21.411Z,1.30
2023-04-11T11:40:49.355Z,1.23
2023-04-11T11:43:16.792Z,1.30
2023-04-11T11:45:44.274Z,1.33
2023-04-11T11:48:24.672Z,1.30
2023-04-11T11:50:58.173Z,0.97
2023-04-11T11:53:26.752Z,0.90
2023-04-11T11:55:54.398Z,0.77
2023-04-11T11:58:21.837Z,0.80
2023-04-11T12:00:50.194Z,0.93
2023-04-11T12:03:24.503Z,0.70
2023-04-11T12:05:53.728Z,1.10
2023-04-11T12:08:24.510Z,0.90
2023-04-11T12:10:51.963Z,0.77
2023-04-11T12:13:19.902Z,1.00
2023-04-11T12:15:51.357Z,0.93
2023-04-11T12:18:20.990Z,0.80
2023-04-11T12:20:48.267Z,0.77
2023-04-11T12:23:15.473Z,1.00
2023-04-11T12:25:42.614Z,1.00
2023-04-11T12:28:09.984Z,1.20
2023-04-11T12:30:37.824Z,1.30
2023-04-11T12:33:05.229Z,1.30
2023-04-11T12:35:32.924Z,0.90
2023-04-11T12:38:00.511Z,0.93
2023-04-11T12:40:29.395Z,1.10
2023-04-11T12:42:57.545Z,1.20
2023-04-11T12:45:25.015Z,1.00
2023-04-11T12:47:52.435Z,0.90
2023-04-11T12:50:19.735Z,0.90
2023-04-11T12:52:48.625Z,0.60
2023-04-11T12:55:16.004Z,0.93
2023-04-11T12:57:43.726Z,1.10
2023-04-11T13:00:12.730Z,1.10
2023-04-11T13:02:43.905Z,1.20
2023-04-11T13:05:13.886Z,1.10
2023-04-11T13:07:41.795Z,1.43
2023-04-11T13:10:09.543Z,1.27
2023-04-11T13:12:41.314Z,1.40
2023-04-11T13:15:12.348Z,1.50
2023-04-11T13:17:39.786Z,1.27
2023-04-11T13:20:08.147Z,1.40
2023-04-11T13:22:35.330Z,1.30
2023-04-11T13:25:02.883Z,1.43
2023-04-11T13:27:30.015Z,1.40
2023-04-11T13:29:57.210Z,1.70
2023-04-11T13:32:24.497Z,1.53
2023-04-11T13:34:51.703Z,1.40
2023-04-11T13:37:18.864Z,1.37
2023-04-11T13:39:46.096Z,1.40
2023-04-11T13:42:13.695Z,1.20
2023-04-11T13:44:40.856Z,1.20
2023-04-11T13:47:08.036Z,1.30
2023-04-11T13:49:35.319Z,1.40
2023-04-11T13:52:02.508Z,1.23
2023-04-11T13:54:30.268Z,1.20
2023-04-11T13:56:59.005Z,0.80
2023-04-11T13:59:28.027Z,1.00
2023-04-11T14:01:55.178Z,0.93
2023-04-11T14:04:22.592Z,1.00
2023-04-11T14:06:49.886Z,0.90
2023-04-11T14:09:17.669Z,0.90
2023-04-11T14:11:44.812Z,0.90
2023-04-11T14:14:11.971Z,0.77
2023-04-11T14:16:39.142Z,0.77
2023-04-11T14:19:06.345Z,0.80
2023-04-11T14:21:33.528Z,0.80
2023-04-11T14:24:01.029Z,1.00
2023-04-11T14:26:28.207Z,0.90
2023-04-11T14:28:55.352Z,0.90
2023-04-11T14:31:22.649Z,1.10
2023-04-11T14:33:50.253Z,1.00
2023-04-11T14:36:17.367Z,0.90
2023-04-11T14:38:44.505Z,1.00
2023-04-11T14:41:11.622Z,1.10
2023-04-11T14:43:38.832Z,1.20
2023-04-11T14:46:06.102Z,1.20
2023-04-11T14:48:33.233Z,1.30
2023-04-11T14:51:03.493Z,1.30
2023-04-11T14:53:31.219Z,0.93
2023-04-11T14:55:58.379Z,0.80
2023-04-11T14:58:25.687Z,0.87
2023-04-11T15:00:52.788Z,0.60
2023-04-11T15:03:20.229Z,0.50
2023-04-11T15:05:47.596Z,0.50
2023-04-11T15:08:14.771Z,0.40
2023-04-11T15:10:41.964Z,0.70
2023-04-11T15:13:11.802Z,0.80
2023-04-11T15:15:39.062Z,0.80
2023-04-11T15:18:19.734Z,0.60
2023-04-11T15:20:46.891Z,0.60
2023-04-11T15:23:14.135Z,0.57
2023-04-11T15:25:41.435Z,0.80
2023-04-11T15:28:09.619Z,0.60
2023-04-11T15:30:40.258Z,0.70
2023-04-11T15:33:07.526Z,0.60
2023-04-11T15:35:34.620Z,0.80
2023-04-11T15:38:01.836Z,0.77
2023-04-11T15:40:28.954Z,0.80
2023-04-11T15:42:56.109Z,0.77
2023-04-11T15:45:23.259Z,0.73
2023-04-11T15:47:50.609Z,1.00
2023-04-11T15:50:17.898Z,0.97
2023-04-11T15:52:47.604Z,0.90
2023-04-11T15:55:15.404Z,0.90
2023-04-11T15:57:42.538Z,1.07
2023-04-11T16:00:10.055Z,1.10
2023-04-11T16:02:37.616Z,1.30
2023-04-11T16:05:05.335Z,1.20
2023-04-11T16:07:33.661Z,1.10
2023-04-11T16:10:00.767Z,1.03
2023-04-11T16:12:28.286Z,1.30
2023-04-11T16:14:55.551Z,1.30
2023-04-11T16:17:22.739Z,1.27
2023-04-11T16:19:52.012Z,1.00
2023-04-11T16:22:19.393Z,1.10
2023-04-11T16:24:46.572Z,1.10
2023-04-11T16:27:13.866Z,1.40
2023-04-11T16:29:42.318Z,1.17
2023-04-11T16:32:09.757Z,1.10
2023-04-11T16:34:37.050Z,1.10
2023-04-11T16:37:04.237Z,1.10
2023-04-11T16:39:31.610Z,1.17
2023-04-11T16:41:58.724Z,1.37
2023-04-11T16:44:25.913Z,1.30
2023-04-11T16:46:53.019Z,1.93
2023-04-11T16:49:20.206Z,1.53
2023-04-11T16:51:47.323Z,1.23
2023-04-11T16:54:15.051Z,1.37
2023-04-11T16:56:43.046Z,1.50
2023-04-11T16:59:12.266Z,1.33
2023-04-11T17:01:40.813Z,1.27
2023-04-11T17:04:08.215Z,1.50
2023-04-11T17:06:37.073Z,1.40
2023-04-11T17:09:06.298Z,1.40
2023-04-11T17:11:34.873Z,1.60
2023-04-11T17:14:03.378Z,1.33
2023-04-11T17:16:30.583Z,1.30
2023-04-11T17:18:57.812Z,1.40
2023-04-11T17:21:24.946Z,1.83
2023-04-11T17:23:52.088Z,2.00
2023-04-11T17:26:20.322Z,2.17
2023-04-11T17:28:47.682Z,1.97
2023-04-11T17:31:15.623Z,1.63
2023-04-11T17:33:43.403Z,1.90
2023-04-11T17:36:12.273Z,2.90
2023-04-11T17:38:40.348Z,2.50
2023-04-11T17:41:14.394Z,2.97
2023-04-11T17:43:42.435Z,2.10
2023-04-11T17:46:09.733Z,2.40
2023-04-11T17:48:37.062Z,2.20
2023-04-11T17:51:08.069Z,2.10
2023-04-11T17:53:35.330Z,2.00
2023-04-11T17:56:08.630Z,2.43
2023-04-11T17:58:35.825Z,2.60
2023-04-11T18:01:06.037Z,2.37
2023-04-11T18:03:36.167Z,2.10
2023-04-11T18:06:03.863Z,1.80
2023-04-11T18:08:48.940Z,1.80
2023-04-11T18:11:17.976Z,2.80
2023-04-11T18:13:46.417Z,2.93
2023-04-11T18:16:15.020Z,2.60
2023-04-11T18:18:42.246Z,2.70
2023-04-11T18:21:09.369Z,2.57
2023-04-11T18:23:36.536Z,6.10
2023-04-11T18:26:03.677Z,5.60
2023-04-11T18:28:30.930Z,2.90
2023-04-11T18:30:58.171Z,2.73
2023-04-11T18:33:26.093Z,3.00
2023-04-11T18:35:53.405Z,2.63
2023-04-11T18:38:20.626Z,2.50
2023-04-11T18:40:48.785Z,2.00
2023-04-11T18:43:16.211Z,2.70
2023-04-11T18:45:44.264Z,3.97
2023-04-11T18:48:12.010Z,2.47
2023-04-11T18:50:42.705Z,1.30
2023-04-11T18:53:13.250Z,1.33
2023-04-11T18:55:41.470Z,1.30
2023-04-11T18:58:09.838Z,1.10
2023-04-11T19:00:39.085Z,1.37
2023-04-11T19:03:14.722Z,1.00
2023-04-11T19:05:42.485Z,1.07
2023-04-11T19:08:09.721Z,1.00
2023-04-11T19:10:36.887Z,1.20
2023-04-11T19:13:04.108Z,1.23
2023-04-11T19:15:31.258Z,1.40
2023-04-11T19:17:58.518Z,1.37
2023-04-11T19:20:26.785Z,1.60
2023-04-11T19:22:53.961Z,1.63
2023-04-11T19:25:21.228Z,1.30
2023-04-11T19:27:48.925Z,1.40
2023-04-11T19:30:16.349Z,1.40
2023-04-11T19:32:45.577Z,1.70
2023-04-11T19:35:12.970Z,1.40
2023-04-11T19:37:40.853Z,1.33
2023-04-11T19:40:08.261Z,1.90
2023-04-11T19:42:40.255Z,1.60
2023-04-11T19:45:07.925Z,1.57
2023-04-11T19:47:35.270Z,1.63
2023-04-11T19:50:02.452Z,1.70
2023-04-11T19:52:29.882Z,1.50
2023-04-11T19:54:57.177Z,1.43
2023-04-11T19:57:27.196Z,1.70
2023-04-11T19:59:54.301Z,1.33
2023-04-11T20:02:21.719Z,1.60
2023-04-11T20:04:49.465Z,2.40
2023-04-11T20:07:17.690Z,1.80
2023-04-11T20:09:44.873Z,1.97
2023-04-11T20:12:13.022Z,1.50
2023-04-11T20:14:40.377Z,1.27
2023-04-11T20:17:08.603Z,1.37
2023-04-11T20:19:37.696Z,1.20
2023-04-11T20:22:05.544Z,1.37
2023-04-11T20:24:33.272Z,1.57
2023-04-11T20:27:00.813Z,1.20
2023-04-11T20:29:32.448Z,1.30
2023-04-11T20:31:59.839Z,1.60
2023-04-11T20:34:27.076Z,1.43
2023-04-11T20:36:54.338Z,1.30
2023-04-11T20:39:21.478Z,1.50
2023-04-11T20:41:49.817Z,1.20
2023-04-11T20:44:18.307Z,1.27
2023-04-11T20:46:46.358Z,1.43
2023-04-11T20:49:13.475Z,1.67
2023-04-11T20:51:41.084Z,1.37
2023-04-11T20:54:08.215Z,1.60
2023-04-11T20:56:36.164Z,1.77
2023-04-11T20:59:03.876Z,1.50
2023-04-11T21:01:32.472Z,1.60
2023-04-11T21:04:03.682Z,1.50
2023-04-11T21:06:31.720Z,1.73
2023-04-11T21:09:05.806Z,2.23
2023-04-11T21:11:33.400Z,2.50
2023-04-11T21:14:00.744Z,1.93
2023-04-11T21:16:28.120Z,1.90
2023-04-11T21:18:55.433Z,2.27
2023-04-11T21:21:22.570Z,2.10
2023-04-11T21:23:49.767Z,2.13
2023-04-11T21:26:16.851Z,1.93
2023-04-11T21:28:44.007Z,2.17
2023-04-11T21:31:11.242Z,2.00
2023-04-11T21:33:38.338Z,2.10
2023-04-11T21:36:05.658Z,2.10
2023-04-11T21:38:32.828Z,2.10
2023-04-11T21:40:59.954Z,2.37
2023-04-11T21:43:27.986Z,1.80
2023-04-11T21:45:55.097Z,2.00
2023-04-11T21:48:22.355Z,1.73
2023-04-11T21:50:49.553Z,2.17
2023-04-11T21:53:16.985Z,2.07
2023-04-11T21:55:47.133Z,2.10
2023-04-11T21:58:27.904Z,2.00
2023-04-11T22:00:55.998Z,2.10
2023-04-11T22:03:23.840Z,2.20
2023-04-11T22:05:52.389Z,2.00
2023-04-11T22:08:22.424Z,2.00
2023-04-11T22:10:52.417Z,2.10
2023-04-11T22:13:20.256Z,2.20
2023-04-11T22:15:48.837Z,1.87
2023-04-11T22:18:16.113Z,1.87
2023-04-11T22:20:44.133Z,1.83
2023-04-11T22:23:13.158Z,1.90
2023-04-11T22:25:43.317Z,1.97
2023-04-11T22:28:13.726Z,2.20
2023-04-11T22:30:41.277Z,2.20
2023-04-11T22:33:08.842Z,2.30
2023-04-11T22:35:36.033Z,2.13
2023-04-11T22:38:03.829Z,2.07
2023-04-11T22:40:31.205Z,2.10
2023-04-11T22:42:58.410Z,1.83
2023-04-11T22:45:25.706Z,1.77
2023-04-11T22:47:55.613Z,2.20
2023-04-11T22:50:22.904Z,1.67
2023-04-11T22:52:50.186Z,2.00
2023-04-11T22:55:19.914Z,1.90
2023-04-11T22:57:47.151Z,2.00
2023-04-11T23:00:16.436Z,2.03
2023-04-11T23:02:44.086Z,2.00
2023-04-11T23:05:11.402Z,1.90
2023-04-11T23:07:38.859Z,2.33
2023-04-11T23:10:08.951Z,2.10
2023-04-11T23:12:36.414Z,1.90
2023-04-11T23:15:04.214Z,2.17
2023-04-11T23:17:31.402Z,1.60
2023-04-11T23:19:59.623Z,1.83
2023-04-11T23:22:27.473Z,2.03
2023-04-11T23:24:54.999Z,1.93
2023-04-11T23:27:22.833Z,1.60
2023-04-11T23:29:50.554Z,1.80
2023-04-11T23:32:18.861Z,2.30
2023-04-11T23:34:49.284Z,1.93
2023-04-11T23:37:16.698Z,2.30
2023-04-11T23:39:43.885Z,1.83
2023-04-11T23:42:11.028Z,2.20
2023-04-11T23:44:38.212Z,1.93
2023-04-11T23:47:05.355Z,1.60
2023-04-11T23:49:32.521Z,1.90
2023-04-11T23:51:59.623Z,1.97
2023-04-11T23:54:32.595Z,1.77
2023-04-11T23:56:59.741Z,1.93
2023-04-11T23:59:27.083Z,4.30
